sensor_id;sensor_type;location;lat;lon;timestamp;P1;durP1;ratioP1;P2;durP2;ratioP2
65053;SDS011;51639;47.828;35.038;2022-08-19T00:00:54;14.57;;;11.23;;
65053;SDS011;51639;47.828;35.038;2022-08-19T00:15:56;15.07;;;11.27;;
65053;SDS011;51639;47.828;35.038;2022-08-19T00:30:59;19.80;;;12.17;;
65053;SDS011;51639;47.828;35.038;2022-08-19T00:46:01;20.60;;;11.33;;
65053;SDS011;51639;47.828;35.038;2022-08-19T01:01:06;17.15;;;12.35;;
65053;SDS011;51639;47.828;35.038;2022-08-19T02:23:31;22.35;;;14.23;;
65053;SDS011;51639;47.828;35.038;2022-08-19T02:38:33;24.63;;;15.43;;
65053;SDS011;51639;47.828;35.038;2022-08-19T03:08:42;25.50;;;14.13;;
65053;SDS011;51639;47.828;35.038;2022-08-19T03:23:46;24.33;;;14.70;;
65053;SDS011;51639;47.828;35.038;2022-08-19T03:38:49;20.73;;;14.97;;
65053;SDS011;51639;47.828;35.038;2022-08-19T03:54:00;26.98;;;17.25;;
65053;SDS011;51639;47.828;35.038;2022-08-19T04:09:05;35.90;;;16.52;;
65053;SDS011;51639;47.828;35.038;2022-08-19T04:24:09;34.47;;;19.23;;
65053;SDS011;51639;47.828;35.038;2022-08-19T04:39:14;35.08;;;20.27;;
65053;SDS011;51639;47.828;35.038;2022-08-19T04:54:18;47.50;;;26.35;;
65053;SDS011;51639;47.828;35.038;2022-08-19T05:09:39;29.35;;;19.63;;
65053;SDS011;51639;47.828;35.038;2022-08-19T05:24:58;28.45;;;18.42;;
65053;SDS011;51639;47.828;35.038;2022-08-19T05:40:13;30.15;;;18.60;;
65053;SDS011;51639;47.828;35.038;2022-08-19T05:55:15;37.53;;;20.20;;
65053;SDS011;51639;47.828;35.038;2022-08-19T06:10:17;29.60;;;17.55;;
65053;SDS011;51639;47.828;35.038;2022-08-19T06:25:19;32.53;;;16.25;;
65053;SDS011;51639;47.828;35.038;2022-08-19T06:40:21;22.05;;;14.32;;
65053;SDS011;51639;47.828;35.038;2022-08-19T06:55:23;20.15;;;12.73;;
65053;SDS011;51639;47.828;35.038;2022-08-19T07:10:26;21.88;;;15.05;;
65053;SDS011;51639;47.828;35.038;2022-08-19T07:25:28;13.70;;;8.32;;
65053;SDS011;51639;47.828;35.038;2022-08-19T07:40:32;17.13;;;8.07;;
65053;SDS011;51639;47.828;35.038;2022-08-19T07:55:34;12.23;;;7.90;;
65053;SDS011;51639;47.828;35.038;2022-08-19T08:10:43;11.38;;;7.38;;
65053;SDS011;51639;47.828;35.038;2022-08-19T08:25:55;12.65;;;8.18;;
65053;SDS011;51639;47.828;35.038;2022-08-19T08:41:06;14.20;;;8.07;;
65053;SDS011;51639;47.828;35.038;2022-08-19T08:56:27;12.45;;;8.02;;
65053;SDS011;51639;47.828;35.038;2022-08-19T09:11:55;14.55;;;9.32;;
65053;SDS011;51639;47.828;35.038;2022-08-19T09:26:57;11.98;;;9.35;;
65053;SDS011;51639;47.828;35.038;2022-08-19T09:42:01;10.88;;;8.13;;
65053;SDS011;51639;47.828;35.038;2022-08-19T09:57:05;7.22;;;5.78;;
65053;SDS011;51639;47.828;35.038;2022-08-19T10:12:08;8.55;;;5.60;;
65053;SDS011;51639;47.828;35.038;2022-08-19T10:27:11;5.07;;;3.90;;
65053;SDS011;51639;47.828;35.038;2022-08-19T10:42:16;8.10;;;4.63;;
65053;SDS011;51639;47.828;35.038;2022-08-19T10:57:19;8.93;;;5.00;;
65053;SDS011;51639;47.828;35.038;2022-08-19T11:27:42;7.78;;;5.95;;
65053;SDS011;51639;47.828;35.038;2022-08-19T11:42:45;8.02;;;5.43;;
65053;SDS011;51639;47.828;35.038;2022-08-19T11:57:57;9.85;;;7.05;;
65053;SDS011;51639;47.828;35.038;2022-08-19T12:12:59;9.43;;;7.18;;
65053;SDS011;51639;47.828;35.038;2022-08-19T12:28:01;11.07;;;6.90;;
65053;SDS011;51639;47.828;35.038;2022-08-19T12:43:05;13.52;;;5.97;;
65053;SDS011;51639;47.828;35.038;2022-08-19T12:58:09;8.85;;;6.07;;
65053;SDS011;51639;47.828;35.038;2022-08-19T13:13:13;6.63;;;5.65;;
65053;SDS011;51639;47.828;35.038;2022-08-19T13:28:15;8.65;;;6.32;;
65053;SDS011;51639;47.828;35.038;2022-08-19T13:43:21;9.02;;;6.43;;
65053;SDS011;51639;47.828;35.038;2022-08-19T13:58:24;11.25;;;6.97;;
65053;SDS011;51639;47.828;35.038;2022-08-19T14:13:26;16.58;;;6.93;;
65053;SDS011;51639;47.828;35.038;2022-08-19T14:28:28;13.45;;;7.40;;
65053;SDS011;51639;47.828;35.038;2022-08-19T14:43:31;12.35;;;8.27;;
65053;SDS011;51639;47.828;35.038;2022-08-19T14:58:33;9.60;;;5.97;;
65053;SDS011;51639;47.828;35.038;2022-08-19T15:13:39;8.93;;;4.82;;
65053;SDS011;51639;47.828;35.038;2022-08-19T15:28:41;9.27;;;4.88;;
65053;SDS011;51639;47.828;35.038;2022-08-19T15:43:43;5.50;;;3.22;;
65053;SDS011;51639;47.828;35.038;2022-08-19T15:58:45;8.13;;;3.67;;
65053;SDS011;51639;47.828;35.038;2022-08-19T16:14:07;9.43;;;4.93;;
65053;SDS011;51639;47.828;35.038;2022-08-19T16:29:10;7.68;;;4.63;;
65053;SDS011;51639;47.828;35.038;2022-08-19T16:44:14;8.40;;;5.40;;
65053;SDS011;51639;47.828;35.038;2022-08-19T16:59:18;10.23;;;6.05;;
65053;SDS011;51639;47.828;35.038;2022-08-19T17:14:20;12.53;;;6.57;;
65053;SDS011;51639;47.828;35.038;2022-08-19T17:29:22;10.33;;;7.87;;
65053;SDS011;51639;47.828;35.038;2022-08-19T17:44:24;14.90;;;9.57;;
65053;SDS011;51639;47.828;35.038;2022-08-19T17:59:26;26.57;;;15.43;;
65053;SDS011;51639;47.828;35.038;2022-08-19T18:14:31;23.70;;;13.43;;
65053;SDS011;51639;47.828;35.038;2022-08-19T18:29:35;60.10;;;33.25;;
65053;SDS011;51639;47.828;35.038;2022-08-19T18:44:39;26.50;;;15.55;;
65053;SDS011;51639;47.828;35.038;2022-08-19T19:00:00;21.58;;;12.02;;
65053;SDS011;51639;47.828;35.038;2022-08-19T19:15:04;15.00;;;9.70;;
65053;SDS011;51639;47.828;35.038;2022-08-19T19:30:07;13.32;;;8.80;;
65053;SDS011;51639;47.828;35.038;2022-08-19T19:45:10;13.20;;;9.90;;
65053;SDS011;51639;47.828;35.038;2022-08-19T20:00:12;16.37;;;10.20;;
65053;SDS011;51639;47.828;35.038;2022-08-19T20:15:17;15.18;;;10.23;;
65053;SDS011;51639;47.828;35.038;2022-08-19T20:30:20;18.70;;;12.20;;
65053;SDS011;51639;47.828;35.038;2022-08-19T20:45:23;37.50;;;24.38;;
65053;SDS011;51639;47.828;35.038;2022-08-19T21:00:34;12.63;;;9.18;;
65053;SDS011;51639;47.828;35.038;2022-08-19T21:15:36;14.57;;;10.10;;
65053;SDS011;51639;47.828;35.038;2022-08-19T21:30:41;20.30;;;10.52;;
65053;SDS011;51639;47.828;35.038;2022-08-19T21:45:44;15.25;;;10.05;;
65053;SDS011;51639;47.828;35.038;2022-08-19T22:00:47;11.73;;;8.23;;
65053;SDS011;51639;47.828;35.038;2022-08-19T22:30:52;11.65;;;8.55;;
65053;SDS011;51639;47.828;35.038;2022-08-19T22:45:54;18.30;;;10.60;;
65053;SDS011;51639;47.828;35.038;2022-08-19T23:00:57;18.27;;;12.10;;
65053;SDS011;51639;47.828;35.038;2022-08-19T23:15:59;20.33;;;13.03;;
65053;SDS011;51639;47.828;35.038;2022-08-19T23:31:01;21.02;;;13.98;;
